Time;durP1;ratioP1;P1;durP2;ratioP2;P2;SDS_P1;SDS_P2;PMS_P1;PMS_P2;Temp;Humidity;BMP_temperature;BMP_pressure;BME280_temperature;BME280_humidity;BME280_pressure;Samples;Min_cycle;Max_cycle;Signal;HPM_P1;HPM_P2
2021/07/06 00:00:24;;;;;;;972.13;896.92;;;;;;;-144.99;97.20;52285.03;5069438;28;20702;-62
2021/07/06 00:02:51;;;;;;;932.90;859.60;;;;;;;-144.99;97.22;52315.59;5081560;28;20219;-65
2021/07/06 00:05:18;;;;;;;917.17;844.55;;;;;;;-144.99;97.06;52293.19;5076140;28;20212;-64
2021/07/06 00:07:47;;;;;;;898.95;827.35;;;;;;;-144.99;97.32;52319.69;5089232;28;20215;-64
2021/07/06 00:10:16;;;;;;;886.23;814.73;;;;;;;-144.99;97.69;52305.41;5088874;28;20583;-60
2021/07/06 00:12:42;;;;;;;903.10;830.67;;;;;;;-144.99;97.51;52333.94;5086374;28;20648;-61
2021/07/06 00:15:11;;;;;;;894.05;822.33;;;;;;;-144.99;97.38;52297.25;5077703;28;21190;-60
2021/07/06 00:17:38;;;;;;;850.83;780.15;;;;;;;-144.99;97.49;52301.34;5083683;28;20673;-61
2021/07/06 00:20:07;;;;;;;841.23;771.77;;;;;;;-144.99;97.63;52317.66;5083845;28;20230;-61
2021/07/06 00:22:34;;;;;;;892.80;821.17;;;;;;;-144.99;97.65;52342.09;5088260;28;20636;-60
2021/07/06 00:25:02;;;;;;;875.53;804.83;;;;;;;-144.99;97.53;52338.03;5077430;28;20201;-60
2021/07/06 00:27:28;;;;;;;856.35;785.55;;;;;;;-144.99;97.48;52317.66;5069032;28;20213;-60
2021/07/06 00:29:55;;;;;;;864.27;793.33;;;;;;;-144.99;97.62;52342.09;5069387;28;20240;-65
2021/07/06 00:32:21;;;;;;;851.03;781.38;;;;;;;-144.99;97.77;52317.66;5082219;28;20633;-65
2021/07/06 00:34:48;;;;;;;891.67;820.47;;;;;;;-144.99;97.74;52317.66;5081419;28;20213;-64
2021/07/06 00:37:15;;;;;;;880.92;810.50;;;;;;;-144.99;98.06;52342.09;5068068;28;20219;-64
2021/07/06 00:39:41;;;;;;;904.78;833.15;;;;;;;-144.99;98.00;52309.50;5068547;28;20239;-64
2021/07/06 00:42:10;;;;;;;899.38;828.38;;;;;;;-144.99;98.07;52362.50;5068546;28;20462;-65
2021/07/06 00:44:38;;;;;;;923.45;850.50;;;;;;;-144.99;98.02;52325.81;5075357;28;20205;-65
2021/07/06 00:47:05;;;;;;;907.50;835.13;;;;;;;-144.99;97.97;52317.66;5071098;28;20208;-60
2021/07/06 00:49:32;;;;;;;899.78;827.50;;;;;;;-144.99;98.10;52301.34;5079646;28;20606;-60
2021/07/06 00:51:59;;;;;;;870.60;799.08;;;;;;;-144.99;98.09;52313.56;5083889;28;20481;-60
2021/07/06 00:54:26;;;;;;;860.35;789.42;;;;;;;-144.99;97.97;52342.09;5081144;28;20209;-61
2021/07/06 00:56:53;;;;;;;886.40;814.25;;;;;;;-144.99;98.07;52301.34;5075243;28;20216;-61
2021/07/06 00:59:21;;;;;;;965.28;889.92;;;;;;;-144.99;97.93;52319.69;5086942;28;20259;-61
2021/07/06 01:01:49;;;;;;;979.35;903.67;;;;;;;-144.99;97.74;52303.38;5078494;28;20220;-61
2021/07/06 01:04:16;;;;;;;970.78;895.17;;;;;;;-144.99;98.10;52342.09;5082692;28;20331;-62
2021/07/06 01:06:42;;;;;;;1008.65;931.25;;;;;;;-144.99;97.73;52325.81;5078627;28;20234;-62
2021/07/06 01:09:10;;;;;;;973.22;897.78;;;;;;;-144.99;97.62;52278.91;5084477;28;20224;-60
2021/07/06 01:11:37;;;;;;;953.17;878.60;;;;;;;-144.99;97.90;52340.06;5079157;28;20231;-60
2021/07/06 01:14:04;;;;;;;1000.42;924.20;;;;;;;-144.99;97.32;52333.94;5084827;28;20220;-61
2021/07/06 01:16:32;;;;;;;1060.20;981.35;;;;;;;-144.99;97.59;52297.25;5079671;28;20213;-61
2021/07/06 01:18:59;;;;;;;1015.88;938.25;;;;;;;-144.99;97.26;52305.41;5080748;28;20612;-61
2021/07/06 01:21:25;;;;;;;1026.20;947.58;;;;;;;-144.99;97.14;52329.88;5084503;28;20293;-60
2021/07/06 01:23:53;;;;;;;1034.90;956.25;;;;;;;-144.99;96.94;52293.19;5078446;28;20212;-60
2021/07/06 01:26:20;;;;;;;1039.90;961.20;;;;;;;-144.99;97.01;52329.88;5079267;28;20270;-61
2021/07/06 01:28:46;;;;;;;1015.75;938.85;;;;;;;-144.99;96.92;52336.00;5091518;28;20211;-60
2021/07/06 01:31:13;;;;;;;1024.93;946.28;;;;;;;-144.99;96.70;52303.38;5078625;28;20204;-61
2021/07/06 01:33:39;;;;;;;1045.80;966.13;;;;;;;-144.99;96.71;52293.19;5077818;28;20227;-62
2021/07/06 01:36:07;;;;;;;1010.22;933.40;;;;;;;-144.99;96.85;52358.41;5078472;28;20228;-61
2021/07/06 01:38:36;;;;;;;1021.75;943.33;;;;;;;-144.99;96.84;52333.94;5071527;28;20225;-62
2021/07/06 01:41:05;;;;;;;981.40;906.45;;;;;;;-144.99;96.85;52303.38;5084559;28;20264;-62
2021/07/06 01:43:32;;;;;;;1055.60;976.63;;;;;;;-144.99;96.92;52333.94;5077387;28;20220;-61
2021/07/06 01:45:59;;;;;;;1028.85;951.00;;;;;;;-144.99;96.71;52333.94;5083534;28;20204;-63
2021/07/06 01:48:25;;;;;;;1054.53;976.22;;;;;;;-144.99;96.59;52309.50;5073547;28;20216;-60
2021/07/06 01:50:52;;;;;;;1029.05;951.25;;;;;;;-144.99;96.48;52336.00;5078653;28;20228;-61
2021/07/06 01:53:21;;;;;;;990.45;914.22;;;;;;;-144.99;96.52;52342.09;5090720;28;20236;-60
2021/07/06 01:55:50;;;;;;;955.53;881.25;;;;;;;-144.99;96.67;52317.66;5077430;28;20270;-60
2021/07/06 01:58:19;;;;;;;1044.63;965.35;;;;;;;-144.99;96.43;52338.03;5084869;28;20212;-59
2021/07/06 02:00:48;;;;;;;968.33;893.80;;;;;;;-144.99;96.56;52333.94;5070773;28;20247;-59
2021/07/06 02:05:49;;;;;;;996.78;920.70;;;;;;;-144.99;96.61;52346.19;5100185;28;20691;-56
2021/07/06 02:08:18;;;;;;;934.85;861.80;;;;;;;-144.99;96.46;52325.81;5111509;27;20200;-58
2021/07/06 02:10:46;;;;;;;820.92;750.95;;;;;;;-144.99;96.13;52331.91;5100877;27;20224;-58
2021/07/06 02:13:15;;;;;;;940.72;867.08;;;;;;;-144.99;96.22;52327.84;5091988;28;20216;-61
2021/07/06 02:15:44;;;;;;;956.33;881.47;;;;;;;-144.99;96.28;52309.50;5091344;28;20212;-59
2021/07/06 02:18:15;;;;;;;874.45;802.13;;;;;;;-144.99;96.08;52315.59;5086787;28;20206;-60
2021/07/06 02:20:42;;;;;;;869.72;797.30;;;;;;;-144.99;96.02;52303.38;5086829;28;20494;-60
2021/07/06 02:23:09;;;;;;;838.72;768.58;;;;;;;-144.99;95.96;52333.94;5091745;28;20204;-60
2021/07/06 02:25:35;;;;;;;908.15;836.33;;;;;;;-144.99;96.00;52305.41;5091019;28;20283;-60
2021/07/06 02:28:02;;;;;;;945.42;872.47;;;;;;;-144.99;96.29;52325.81;5091084;28;20212;-61
2021/07/06 02:30:29;;;;;;;883.42;812.95;;;;;;;-144.99;96.31;52342.09;5091862;28;20258;-61
2021/07/06 02:32:57;;;;;;;831.65;762.30;;;;;;;-144.99;95.92;52309.50;5090961;28;20215;-59
2021/07/06 02:35:26;;;;;;;729.42;663.28;;;;;;;-144.99;96.42;52342.09;5090930;28;20203;-59
2021/07/06 02:37:54;;;;;;;686.70;621.63;;;;;;;-144.99;96.21;52329.88;5091116;28;20208;-60
2021/07/06 02:40:21;;;;;;;700.78;634.85;;;;;;;-144.99;95.95;52313.56;5091164;28;20382;-61
2021/07/06 02:42:48;;;;;;;744.42;677.30;;;;;;;-144.99;95.96;52338.03;5091598;28;20215;-59
2021/07/06 02:45:17;;;;;;;878.85;808.58;;;;;;;-144.99;96.30;52362.50;5091148;28;20212;-59
2021/07/06 02:47:44;;;;;;;865.35;795.03;;;;;;;-144.99;96.18;52289.13;5090046;28;20680;-60
2021/07/06 02:50:13;;;;;;;788.25;720.33;;;;;;;-144.99;96.28;52313.56;5090995;28;20236;-60
2021/07/06 02:52:40;;;;;;;847.22;778.45;;;;;;;-144.99;95.98;52333.94;5089106;28;20215;-60
2021/07/06 02:55:08;;;;;;;927.38;856.22;;;;;;;-144.99;96.47;52260.56;5090284;28;20208;-60
2021/07/06 02:57:35;;;;;;;1056.20;977.15;;;;;;;-144.99;96.61;52338.03;5090322;28;20211;-60
2021/07/06 03:00:10;;;;;;;1061.90;982.20;;;;;;;-144.99;96.51;52346.19;5090132;28;20230;-61
2021/07/06 03:02:36;;;;;;;1059.88;980.17;;;;;;;-144.99;97.11;52287.06;5090257;28;20714;-60
2021/07/06 03:05:04;;;;;;;1046.45;967.38;;;;;;;-144.99;97.36;52278.91;5090458;28;20216;-61
2021/07/06 03:07:32;;;;;;;999.97;923.83;;;;;;;-144.99;97.81;52303.38;5089783;28;20419;-61
2021/07/06 03:10:01;;;;;;;998.30;922.33;;;;;;;-144.99;97.86;52293.19;5090419;28;20265;-61
2021/07/06 03:12:27;;;;;;;1047.63;968.33;;;;;;;-144.99;97.92;52317.66;5090040;28;20208;-62
2021/07/06 03:14:54;;;;;;;1045.18;965.25;;;;;;;-144.99;97.64;52325.81;5090809;28;20219;-62
2021/07/06 03:17:20;;;;;;;1048.20;968.47;;;;;;;-144.99;97.54;52350.25;5089796;28;20204;-62
2021/07/06 03:19:47;;;;;;;1020.37;942.13;;;;;;;-144.99;97.52;52329.88;5090015;28;20670;-61
2021/07/06 03:22:13;;;;;;;992.58;916.83;;;;;;;-144.99;97.64;52325.81;5089672;28;20665;-61
2021/07/06 03:24:41;;;;;;;1029.13;950.45;;;;;;;-144.99;97.64;52370.63;5090374;28;20241;-61
2021/07/06 03:27:08;;;;;;;1031.30;952.65;;;;;;;-144.99;97.97;52350.25;5090185;28;20216;-62
2021/07/06 03:29:34;;;;;;;1030.00;950.40;;;;;;;-144.99;98.08;52280.97;5089633;28;20264;-61
2021/07/06 03:32:02;;;;;;;1036.43;956.70;;;;;;;-144.99;98.34;52297.25;5089618;28;20642;-59
2021/07/06 03:34:29;;;;;;;1076.40;995.67;;;;;;;-144.99;97.97;52311.53;5089676;28;20223;-59
2021/07/06 03:36:55;;;;;;;1046.35;965.63;;;;;;;-144.99;97.74;52342.09;5089978;28;20219;-59
2021/07/06 03:39:22;;;;;;;1059.03;977.92;;;;;;;-144.99;97.71;52293.19;5089215;28;20242;-60
2021/07/06 03:41:49;;;;;;;1042.95;962.65;;;;;;;-144.99;98.26;52329.88;5089776;28;20224;-60
2021/07/06 03:44:16;;;;;;;1052.57;971.97;;;;;;;-144.99;98.02;52297.25;5089835;28;20206;-60
2021/07/06 03:46:43;;;;;;;1035.50;956.07;;;;;;;-144.99;98.16;52293.19;5088900;28;20692;-59
2021/07/06 03:49:09;;;;;;;1024.10;945.50;;;;;;;-144.99;97.61;52317.66;5089112;28;20658;-63
2021/07/06 03:51:36;;;;;;;1015.13;937.60;;;;;;;-144.99;97.60;52305.41;5088911;28;21203;-63
2021/07/06 03:54:02;;;;;;;1008.95;931.55;;;;;;;-144.99;97.36;52276.88;5084720;28;20563;-60
2021/07/06 03:56:29;;;;;;;1024.18;945.15;;;;;;;-144.99;97.17;52305.41;5089604;28;20201;-60
2021/07/06 03:58:57;;;;;;;1014.70;936.90;;;;;;;-144.99;97.45;52309.50;5089300;28;20506;-60
2021/07/06 04:01:23;;;;;;;1036.18;957.03;;;;;;;-144.99;97.27;52329.88;5089614;28;21022;-59
2021/07/06 04:03:50;;;;;;;1038.85;959.47;;;;;;;-144.99;97.22;52329.88;5089906;28;20239;-62
2021/07/06 04:06:17;;;;;;;1015.13;937.00;;;;;;;-144.99;96.68;52305.41;5089287;28;20681;-61
2021/07/06 04:08:43;;;;;;;1015.70;937.60;;;;;;;-144.99;96.49;52305.41;5088979;28;21239;-61
2021/07/06 04:11:10;;;;;;;999.00;921.97;;;;;;;-144.99;95.91;52313.56;5088777;28;20618;-62
2021/07/06 04:13:36;;;;;;;961.72;887.38;;;;;;;-144.99;95.63;52280.97;5089442;28;20211;-61
2021/07/06 04:16:05;;;;;;;1032.28;953.45;;;;;;;-144.99;95.43;52325.81;5089368;28;20219;-60
2021/07/06 04:18:31;;;;;;;1038.27;959.23;;;;;;;-144.99;95.18;52313.56;5089199;28;20208;-63
2021/07/06 04:20:58;;;;;;;1040.13;961.40;;;;;;;-144.99;95.13;52289.13;5087311;28;21263;-61
2021/07/06 04:23:24;;;;;;;1013.67;936.33;;;;;;;-144.99;94.91;52309.50;5088913;28;20212;-61
2021/07/06 04:25:51;;;;;;;1076.78;996.33;;;;;;;-144.99;94.87;52289.13;5089256;28;20629;-61
2021/07/06 04:28:18;;;;;;;1021.45;944.40;;;;;;;-144.99;94.71;52331.91;5089272;28;20212;-61
2021/07/06 04:30:44;;;;;;;933.47;860.13;;;;;;;-144.99;94.45;52309.50;5088516;28;20227;-61
2021/07/06 04:33:12;;;;;;;1024.25;947.03;;;;;;;-144.99;94.26;52307.47;5089305;28;20204;-61
2021/07/06 04:35:39;;;;;;;938.67;864.72;;;;;;;-144.99;94.36;52319.69;5088557;28;20204;-61
2021/07/06 04:38:05;;;;;;;943.95;870.85;;;;;;;-144.99;94.03;52333.94;5089066;28;20212;-61
2021/07/06 04:40:32;;;;;;;1022.45;944.40;;;;;;;-144.99;94.25;52338.03;5088686;28;20452;-60
2021/07/06 04:43:00;;;;;;;1032.30;954.85;;;;;;;-144.99;94.23;52313.56;5089330;28;20599;-60
2021/07/06 04:45:27;;;;;;;967.17;893.47;;;;;;;-144.99;94.03;52299.31;5089309;28;20214;-60
2021/07/06 04:47:53;;;;;;;1022.10;944.92;;;;;;;-144.99;93.87;52321.72;5089299;28;21009;-60
2021/07/06 04:50:21;;;;;;;1042.05;963.85;;;;;;;-144.99;93.97;52307.47;5088514;28;20220;-60
2021/07/06 04:52:48;;;;;;;1031.77;953.83;;;;;;;-144.99;93.84;52329.88;5089392;28;20204;-60
2021/07/06 04:55:16;;;;;;;1030.83;953.23;;;;;;;-144.99;93.73;52313.56;5089520;28;20625;-60
2021/07/06 04:57:43;;;;;;;1089.72;999.90;;;;;;;-144.99;93.87;52293.19;5090052;28;20626;-60
2021/07/06 05:00:11;;;;;;;1055.97;975.73;;;;;;;-144.99;93.73;52305.41;5092621;28;20215;-60
2021/07/06 05:02:38;;;;;;;1096.60;999.90;;;;;;;-144.99;93.83;52293.19;5092720;28;20653;-68
2021/07/06 05:05:06;;;;;;;1077.10;995.17;;;;;;;-144.99;93.24;52289.13;5093004;28;20224;-67
2021/07/06 05:07:34;;;;;;;1075.17;993.73;;;;;;;-144.99;93.18;52297.25;5093243;28;20722;-67
2021/07/06 05:10:01;;;;;;;1071.17;989.80;;;;;;;-144.99;93.11;52248.34;5093018;28;20648;-66
2021/07/06 05:12:27;;;;;;;1096.17;999.90;;;;;;;-144.99;92.69;52276.88;5092091;28;21168;-67
2021/07/06 05:14:54;;;;;;;1008.93;931.73;;;;;;;-144.99;92.38;52285.03;5092954;28;20638;-67
2021/07/06 05:17:21;;;;;;;1034.13;956.23;;;;;;;-144.99;91.74;52283.00;4037213;28;10001058;-67
2021/07/06 05:19:47;;;;;;;1058.83;979.37;;;;;;;-144.99;91.93;52270.78;5089376;28;20248;-67
2021/07/06 05:22:14;;;;;;;1062.97;983.40;;;;;;;-144.99;91.40;52301.34;5089208;28;20653;-66
2021/07/06 05:24:41;;;;;;;1092.73;999.90;;;;;;;-144.99;90.95;52268.72;5089520;28;21267;-67
2021/07/06 05:27:08;;;;;;;1085.27;998.10;;;;;;;-144.99;90.21;52236.13;5089627;28;20626;-67
2021/07/06 05:29:35;;;;;;;1098.07;999.90;;;;;;;-144.99;90.32;52276.88;5090139;28;20653;-67
2021/07/06 05:32:02;;;;;;;1085.43;999.10;;;;;;;-144.99;90.19;52285.03;5088438;28;21245;-65
2021/07/06 05:34:29;;;;;;;1075.27;993.47;;;;;;;-144.99;90.57;52264.66;5089321;28;20977;-67
2021/07/06 05:36:55;;;;;;;1100.27;999.90;;;;;;;-144.99;90.24;52313.56;5089621;28;20630;-66
2021/07/06 05:39:22;;;;;;;1088.67;999.90;;;;;;;-144.99;90.37;52278.91;5089565;28;20651;-67
2021/07/06 05:41:50;;;;;;;1087.43;999.67;;;;;;;-144.99;90.25;52285.03;5089608;28;20708;-64
2021/07/06 05:44:17;;;;;;;1084.30;999.10;;;;;;;-144.99;90.34;52252.44;5088629;28;21182;-64
2021/07/06 05:46:45;;;;;;;1106.80;999.90;;;;;;;-144.99;89.94;52276.88;5088120;28;21136;-64
2021/07/06 05:49:12;;;;;;;1098.77;999.90;;;;;;;-144.99;90.48;52264.66;5088194;28;20742;-63
2021/07/06 05:51:39;;;;;;;1096.43;999.90;;;;;;;-144.99;90.33;52272.81;5088361;28;20737;-63
2021/07/06 05:54:05;;;;;;;1086.67;999.90;;;;;;;-144.99;90.16;52276.88;5088142;28;20629;-64
2021/07/06 05:56:33;;;;;;;1078.50;997.00;;;;;;;-144.99;90.26;52299.31;5088309;28;20626;-64
2021/07/06 05:59:01;;;;;;;1090.97;999.90;;;;;;;-144.99;90.51;52293.19;5087963;28;20757;-64
2021/07/06 06:01:30;;;;;;;1091.27;999.90;;;;;;;-144.99;90.07;52252.44;5088183;28;20622;-65
2021/07/06 06:03:57;;;;;;;1076.97;995.40;;;;;;;-144.99;90.16;52287.06;5088148;28;20678;-65
2021/07/06 06:06:23;;;;;;;1079.70;997.70;;;;;;;-144.99;89.99;52293.19;5088316;28;20630;-65
2021/07/06 06:08:50;;;;;;;1090.97;999.90;;;;;;;-144.99;90.03;52297.25;5088616;28;21046;-64
2021/07/06 06:11:16;;;;;;;1098.30;999.90;;;;;;;-144.99;89.24;52227.97;5087972;28;20628;-65
2021/07/06 06:13:43;;;;;;;1094.37;999.90;;;;;;;-144.99;88.93;52262.63;5087808;28;21180;-64
2021/07/06 06:16:11;;;;;;;1098.67;999.90;;;;;;;-144.99;88.20;52264.66;5088470;28;20643;-65
2021/07/06 06:18:37;;;;;;;1097.93;999.90;;;;;;;-144.99;87.76;52236.13;5082538;28;20745;-65
2021/07/06 06:21:04;;;;;;;1085.57;999.77;;;;;;;-144.99;87.60;52227.97;5083144;28;21025;-64
2021/07/06 06:23:30;;;;;;;1103.10;999.90;;;;;;;-144.99;87.15;52244.28;5087187;28;21249;-64
2021/07/06 06:25:57;;;;;;;1077.83;997.30;;;;;;;-144.99;86.74;52219.81;5087975;28;20628;-64
2021/07/06 06:28:24;;;;;;;1073.13;996.10;;;;;;;-144.99;86.31;52215.75;5088626;28;20738;-64
2021/07/06 06:30:50;;;;;;;1042.20;967.43;;;;;;;-144.99;86.40;52280.97;5087997;28;20681;-64
2021/07/06 06:33:18;;;;;;;1056.20;980.43;;;;;;;-144.99;86.46;52258.53;5087790;28;20626;-64
2021/07/06 06:35:45;;;;;;;1039.67;964.87;;;;;;;-144.99;86.50;52230.00;5088071;28;20640;-65
2021/07/06 06:38:11;;;;;;;1036.43;962.83;;;;;;;-144.99;86.35;52258.53;5087755;28;20630;-64
2021/07/06 06:40:38;;;;;;;1030.57;957.10;;;;;;;-144.99;85.74;52256.50;5087018;28;21235;-62
2021/07/06 06:43:05;;;;;;;1036.67;962.37;;;;;;;-144.99;86.37;52280.97;5087189;28;20676;-63
2021/07/06 06:45:31;;;;;;;1032.70;959.30;;;;;;;-144.99;85.71;52264.66;5087635;28;20638;-65
2021/07/06 06:47:58;;;;;;;1015.77;944.03;;;;;;;-144.99;85.28;52240.19;5087488;28;20994;-64
2021/07/06 06:50:26;;;;;;;1014.70;942.27;;;;;;;-144.99;85.31;52299.31;5086973;28;20660;-65
2021/07/06 06:52:53;;;;;;;1013.87;942.33;;;;;;;-144.99;85.16;52240.19;5088000;28;20743;-63
2021/07/06 06:55:19;;;;;;;1017.63;946.27;;;;;;;-144.99;84.77;52244.28;5086346;28;20627;-63
2021/07/06 06:57:46;;;;;;;996.53;926.03;;;;;;;-144.99;84.07;52256.50;5087872;28;20630;-63
2021/07/06 07:00:13;;;;;;;988.60;919.13;;;;;;;-144.99;84.23;52260.56;5087393;28;20907;-63
2021/07/06 07:02:40;;;;;;;963.97;895.57;;;;;;;-144.99;84.21;52250.38;5087431;28;20663;-63
2021/07/06 07:05:08;;;;;;;974.70;905.97;;;;;;;-144.99;84.12;52262.63;5087700;28;20644;-64
2021/07/06 07:07:36;;;;;;;955.23;888.00;;;;;;;-144.99;84.08;52227.97;5087385;28;20788;-64
2021/07/06 07:10:03;;;;;;;956.67;889.63;;;;;;;-144.99;83.12;52293.19;5086713;28;20664;-63
2021/07/06 07:12:29;;;;;;;903.43;839.63;;;;;;;-144.99;83.43;52285.03;5087230;28;20730;-64
2021/07/06 07:14:56;;;;;;;905.93;841.83;;;;;;;-144.99;83.47;52260.56;5087057;28;20623;-64
2021/07/06 07:17:23;;;;;;;890.17;827.30;;;;;;;-144.99;83.66;52254.47;5086948;28;21067;-64
2021/07/06 07:19:50;;;;;;;870.17;808.43;;;;;;;-144.99;83.12;52221.84;5086127;28;20725;-64
2021/07/06 07:22:17;;;;;;;884.40;821.97;;;;;;;-144.99;82.66;52240.19;5085650;28;20669;-63
2021/07/06 07:24:44;;;;;;;859.97;798.63;;;;;;;-144.99;82.18;52238.16;5086385;28;20633;-64
2021/07/06 07:27:11;;;;;;;791.60;734.10;;;;;;;-144.99;81.62;52225.94;5087059;28;20615;-63
2021/07/06 07:29:38;;;;;;;797.40;739.80;;;;;;;-144.99;81.10;52252.44;5086538;28;20983;-63
2021/07/06 07:32:06;;;;;;;780.33;723.60;;;;;;;-144.99;79.59;52252.44;5086370;28;20621;-63
2021/07/06 07:34:33;;;;;;;787.43;730.10;;;;;;;-144.99;79.51;52242.22;5087202;28;20625;-62
2021/07/06 07:37:00;;;;;;;781.20;724.33;;;;;;;-144.99;78.82;52252.44;5086181;28;20673;-62
2021/07/06 07:39:26;;;;;;;804.80;746.77;;;;;;;-144.99;77.94;52244.28;5086577;28;21317;-62
2021/07/06 07:41:54;;;;;;;705.43;651.93;;;;;;;-144.99;77.82;52211.66;5086733;28;20621;-63
2021/07/06 07:44:21;;;;;;;683.00;630.77;;;;;;;-144.99;77.67;52227.97;5074043;28;21210;-65
2021/07/06 07:46:47;;;;;;;636.13;585.53;;;;;;;-144.99;77.30;52252.44;5086229;28;20633;-62
2021/07/06 07:49:14;;;;;;;607.83;558.70;;;;;;;-144.99;77.17;52223.88;5085838;28;20839;-63
2021/07/06 07:51:41;;;;;;;599.77;551.03;;;;;;;-144.99;76.22;52203.50;5085880;28;20638;-60
2021/07/06 07:54:08;;;;;;;597.93;549.77;;;;;;;-144.99;75.11;52217.78;5082249;28;20630;-60
2021/07/06 07:56:34;;;;;;;616.27;567.00;;;;;;;-144.99;74.48;52262.63;5086217;28;20626;-61
2021/07/06 07:59:02;;;;;;;681.50;629.50;;;;;;;-144.99;74.44;52232.03;5086120;28;20674;-60
2021/07/06 08:01:29;;;;;;;649.63;598.73;;;;;;;-144.99;74.41;52223.88;5086911;28;20634;-61
2021/07/06 08:03:55;;;;;;;672.80;621.07;;;;;;;-144.99;74.20;52260.56;5086174;28;20692;-61
2021/07/06 08:06:22;;;;;;;683.07;631.30;;;;;;;-144.99;73.21;52219.81;5085893;28;20698;-61
2021/07/06 08:08:48;;;;;;;743.37;689.80;;;;;;;-144.99;71.30;52232.03;5085896;28;20653;-61
2021/07/06 08:11:15;;;;;;;827.70;769.80;;;;;;;-144.99;70.53;52207.59;5085875;28;20977;-61
2021/07/06 08:13:42;;;;;;;797.47;741.23;;;;;;;-144.99;71.69;52207.59;5086019;28;20635;-61
2021/07/06 08:16:10;;;;;;;865.10;805.67;;;;;;;-144.99;71.29;52223.88;5085562;28;20636;-61
2021/07/06 08:18:36;;;;;;;836.43;778.77;;;;;;;-144.99;70.47;52246.31;5084648;28;20640;-61
2021/07/06 08:21:03;;;;;;;972.37;907.07;;;;;;;-144.99;70.75;52219.81;5081249;28;20725;-62
2021/07/06 08:23:29;;;;;;;931.17;867.80;;;;;;;-144.99;71.27;52179.06;5084730;28;20659;-61
2021/07/06 08:25:56;;;;;;;885.87;825.23;;;;;;;-144.99;71.16;52219.81;5086363;28;20632;-61
2021/07/06 08:28:23;;;;;;;915.93;854.27;;;;;;;-144.99;69.37;52211.66;5085658;28;20628;-61
2021/07/06 08:30:51;;;;;;;935.50;873.07;;;;;;;-144.99;69.06;52225.94;5085801;28;21085;-61
2021/07/06 08:33:18;;;;;;;959.23;895.77;;;;;;;-144.99;68.98;52189.25;5089273;28;21188;-61
2021/07/06 08:35:45;;;;;;;1006.87;940.17;;;;;;;-144.99;68.52;52195.34;5092527;28;20633;-61
2021/07/06 08:38:14;;;;;;;1081.80;999.90;;;;;;;-144.99;68.91;52219.81;5092368;28;20614;-61
2021/07/06 08:40:41;;;;;;;1053.73;981.97;;;;;;;-144.99;68.95;52183.13;5092149;28;20664;-61
2021/07/06 08:43:08;;;;;;;1064.83;992.67;;;;;;;-144.99;69.64;52209.63;5093138;28;20668;-61
2021/07/06 08:45:35;;;;;;;1060.40;988.83;;;;;;;-144.99;69.45;52223.88;5091859;28;20628;-62
2021/07/06 08:48:04;;;;;;;1063.77;991.57;;;;;;;-144.99;70.53;52256.50;5093183;28;21110;-60
2021/07/06 08:50:32;;;;;;;1056.80;986.23;;;;;;;-144.99;71.05;52248.34;5093257;28;20660;-62
2021/07/06 08:52:58;;;;;;;1003.43;936.13;;;;;;;-144.99;71.96;52219.81;5092380;28;20633;-62
2021/07/06 08:55:25;;;;;;;812.73;756.43;;;;;;;-144.99;73.21;52215.75;5092377;28;20634;-61
2021/07/06 08:57:53;;;;;;;560.97;515.73;;;;;;;-144.99;77.43;52270.78;5092629;28;20631;-61
2021/07/06 09:00:21;;;;;;;494.10;452.80;;;;;;;-144.99;78.71;52256.50;5091488;28;21030;-61
2021/07/06 09:03:01;;;;;;;442.33;404.30;;;;;;;-144.99;80.98;52252.44;5092123;28;21032;-61
2021/07/06 09:05:29;;;;;;;477.20;439.03;;;;;;;-144.99;82.07;52246.31;5091891;28;21230;-62
2021/07/06 09:07:58;;;;;;;465.70;431.00;;;;;;;-144.99;81.39;52203.50;5092292;28;20635;-62
2021/07/06 09:10:26;;;;;;;446.27;413.23;;;;;;;-144.99;81.46;52244.28;5091291;28;21041;-62
2021/07/06 09:12:53;;;;;;;480.23;445.17;;;;;;;-144.99;80.73;52242.22;5091862;28;21170;-60
2021/07/06 09:15:23;;;;;;;475.30;440.80;;;;;;;-144.99;80.68;52187.19;5092326;28;20630;-60
2021/07/06 09:18:07;;;;;;;496.40;461.90;;;;;;;-144.99;80.30;52211.66;5083265;28;20649;-61
2021/07/06 09:20:35;;;;;;;507.40;470.40;;;;;;;-144.99;78.95;52207.59;5086638;28;20666;-61
2021/07/06 09:23:29;;;;;;;495.43;463.63;;;;;;;-144.99;77.56;52211.66;5091818;28;20669;-61
2021/07/06 09:26:16;;;;;;;500.73;463.47;;;;;;;-144.99;77.55;52207.59;5066370;28;20636;-60
2021/07/06 09:28:45;;;;;;;519.57;480.97;;;;;;;-144.99;76.47;52203.50;5092157;28;20627;-61
2021/07/06 09:31:31;;;;;;;535.17;490.87;;;;;;;-144.99;75.81;52219.81;5091235;28;20635;-61
2021/07/06 09:34:02;;;;;;;517.07;478.27;;;;;;;-144.99;75.73;52195.34;5081255;28;20631;-61
2021/07/06 09:36:36;;;;;;;508.10;470.83;;;;;;;-144.99;74.94;52187.19;5091822;28;20640;-60
2021/07/06 09:39:11;;;;;;;508.60;468.77;;;;;;;-144.99;74.25;52215.75;5091653;28;21220;-61
2021/07/06 09:41:39;;;;;;;500.87;460.57;;;;;;;-144.99;73.74;52203.50;5091669;28;20622;-61
2021/07/06 09:44:25;;;;;;;514.30;471.73;;;;;;;-144.99;72.88;52183.13;5090301;28;20673;-61
2021/07/06 09:46:55;;;;;;;498.33;455.50;;;;;;;-144.99;71.89;52219.81;5088951;28;20625;-61
2021/07/06 09:49:24;;;;;;;521.23;476.30;;;;;;;-144.99;71.63;52199.44;5089110;28;21033;-62
2021/07/06 09:51:52;;;;;;;547.43;500.87;;;;;;;-144.99;72.03;52185.16;5087907;28;20629;-62
2021/07/06 09:54:32;;;;;;;542.27;495.23;;;;;;;-144.99;70.51;52219.81;5088831;28;20618;-61
2021/07/06 09:57:22;;;;;;;534.17;486.13;;;;;;;-144.99;69.30;52203.50;5089210;28;20626;-61
2021/07/06 09:59:56;;;;;;;523.80;478.80;;;;;;;-144.99;70.57;52187.19;5082885;28;20775;-61
2021/07/06 10:02:24;;;;;;;525.13;481.20;;;;;;;-144.99;69.23;52179.06;5087945;28;20655;-61
2021/07/06 10:04:53;;;;;;;556.83;510.17;;;;;;;-144.99;68.64;52174.97;5087932;28;20686;-61
2021/07/06 10:07:20;;;;;;;587.30;539.50;;;;;;;-144.99;68.09;52183.13;5088382;28;20649;-61
2021/07/06 10:09:49;;;;;;;554.50;506.63;;;;;;;-144.99;68.46;52195.34;5088134;28;21029;-60
2021/07/06 10:12:19;;;;;;;603.57;554.90;;;;;;;-144.99;69.23;52174.97;5088572;28;20617;-61
2021/07/06 10:14:47;;;;;;;614.57;565.33;;;;;;;-144.99;69.36;52219.81;5088582;28;21017;-61
2021/07/06 10:17:15;;;;;;;627.07;577.90;;;;;;;-144.99;67.70;52201.47;5087725;28;20632;-61
2021/07/06 10:19:43;;;;;;;647.77;597.90;;;;;;;-144.99;68.05;52162.75;5088192;28;20654;-61
2021/07/06 10:22:11;;;;;;;572.57;524.57;;;;;;;-144.99;68.49;52179.06;5088130;28;20622;-61
2021/07/06 10:24:39;;;;;;;563.53;514.80;;;;;;;-144.99;68.79;52199.44;5087971;28;20671;-62
2021/07/06 10:27:08;;;;;;;797.03;736.37;;;;;;;-144.99;69.22;52207.59;5088918;28;20620;-61
2021/07/06 10:29:36;;;;;;;1078.33;998.87;;;;;;;-144.99;69.59;52240.19;5088324;28;20660;-61
2021/07/06 10:32:04;;;;;;;1073.87;997.93;;;;;;;-144.99;69.75;52244.28;5087778;28;20209;-61
2021/07/06 10:34:42;;;;;;;1070.20;996.03;;;;;;;-144.99;69.61;52227.97;5087735;28;20211;-61
2021/07/06 10:37:28;;;;;;;1064.13;991.33;;;;;;;-144.99;69.30;52230.00;5080520;28;20748;-61
2021/07/06 10:39:56;;;;;;;1053.37;980.83;;;;;;;-144.99;68.69;52203.50;5087345;28;20720;-61
2021/07/06 10:42:39;;;;;;;1056.77;984.87;;;;;;;-144.99;68.93;52215.75;5087706;28;20218;-61
2021/07/06 10:45:20;;;;;;;1042.67;971.07;;;;;;;-144.99;68.57;52227.97;5087873;28;20272;-61
2021/07/06 10:47:48;;;;;;;1049.47;977.97;;;;;;;-144.99;67.93;52209.63;5087472;28;20584;-61